createdAt,value
2019-06-01T00:00:50.638Z,94697.14
2019-06-01T00:15:50.918Z,94685.10
2019-06-01T00:30:52.067Z,94673.81
2019-06-01T00:45:54.021Z,94666.20
2019-06-01T01:00:53.760Z,94669.97
2019-06-01T01:15:51.461Z,94648.99
2019-06-01T01:31:05.529Z,94635.69
2019-06-01T01:45:51.265Z,94633.01
2019-06-01T02:00:54.047Z,94622.80
2019-06-01T02:15:54.125Z,94618.30
2019-06-01T02:30:50.680Z,94611.64
2019-06-01T02:45:58.083Z,94615.48
2019-06-01T03:15:53.893Z,94623.52
2019-06-01T03:30:50.959Z,94633.06
2019-06-01T03:45:54.344Z,94643.92
2019-06-01T04:00:50.692Z,94642.78
2019-06-01T04:15:51.125Z,94647.92
2019-06-01T04:30:54.205Z,94652.03
2019-06-01T04:45:51.061Z,94655.05
2019-06-01T05:00:51.030Z,94650.31
2019-06-01T05:15:51.445Z,94650.20
2019-06-01T05:30:51.430Z,94659.12
2019-06-01T05:45:51.339Z,94670.36
2019-06-01T06:00:51.405Z,94681.39
2019-06-01T06:15:56.669Z,94673.75
2019-06-01T06:30:56.641Z,94665.92
2019-06-01T06:45:50.686Z,94661.69
2019-06-01T07:00:50.631Z,94669.06
2019-06-01T07:15:50.864Z,94666.05
2019-06-01T07:30:50.966Z,94666.42
2019-06-01T07:45:50.896Z,94656.93
2019-06-01T08:00:50.954Z,94666.69
2019-06-01T08:15:51.283Z,94651.00
2019-06-01T08:30:51.215Z,94665.66
2019-06-01T08:45:53.727Z,94670.62
2019-06-01T09:00:51.179Z,94678.60
2019-06-01T09:15:56.432Z,94677.36
2019-06-01T09:30:50.032Z,94660.61
2019-06-01T09:45:53.935Z,94647.77
2019-06-01T10:00:51.531Z,94635.95
2019-06-01T10:15:50.855Z,94619.09
2019-06-01T10:30:50.797Z,94619.88
2019-06-01T10:45:50.838Z,94589.98
2019-06-01T11:00:51.358Z,94582.97
2019-06-01T11:15:51.024Z,94575.88
2019-06-01T11:30:51.132Z,94555.69
2019-06-01T11:45:51.058Z,94555.39
2019-06-01T12:00:51.046Z,94545.72
2019-06-01T12:15:51.379Z,94544.03
2019-06-01T12:30:51.531Z,94535.84
2019-06-01T12:46:07.308Z,94524.39
2019-06-01T13:00:52.475Z,94512.01
2019-06-01T13:15:51.430Z,94506.30
2019-06-01T13:30:51.101Z,94505.89
2019-06-01T13:45:52.176Z,94484.09
2019-06-01T14:00:51.624Z,94486.06
2019-06-01T14:15:53.885Z,94489.47
2019-06-01T14:30:50.911Z,94477.81
2019-06-01T14:45:51.543Z,94466.83
2019-06-01T15:00:56.903Z,94457.95
2019-06-01T15:15:51.428Z,94444.44
2019-06-01T15:30:51.278Z,94445.20
2019-06-01T15:45:51.286Z,94445.51
2019-06-01T16:00:52.652Z,94448.12
2019-06-01T16:15:50.625Z,94439.55
2019-06-01T16:30:51.702Z,94447.17
2019-06-01T16:45:50.536Z,94459.78
2019-06-01T17:00:54.034Z,94471.26
2019-06-01T17:15:50.971Z,94467.79
2019-06-01T17:30:51.582Z,94486.89
2019-06-01T17:45:51.038Z,94495.59
2019-06-01T18:00:51.146Z,94505.28
2019-06-01T18:15:51.238Z,94517.80
2019-06-01T18:30:51.256Z,94535.28
2019-06-01T18:45:51.324Z,94540.30
2019-06-01T19:00:50.780Z,94545.09
2019-06-01T19:15:53.605Z,94541.45
2019-06-01T19:30:50.589Z,94570.00
2019-06-01T19:45:50.651Z,94581.83
2019-06-01T20:00:52.567Z,94587.58
2019-06-01T20:15:50.895Z,94591.03
2019-06-01T20:30:52.973Z,94603.23
2019-06-01T20:45:56.842Z,94573.13
2019-06-01T21:00:50.805Z,94581.67
2019-06-01T21:15:50.554Z,94594.17
2019-06-01T21:30:50.642Z,94600.34
2019-06-01T21:45:50.581Z,94609.42
2019-06-01T22:00:52.633Z,94608.38
2019-06-01T22:15:51.545Z,94597.34
2019-06-01T22:30:53.100Z,94588.53
2019-06-01T22:45:54.488Z,94591.29
2019-06-01T23:00:51.467Z,94586.20
2019-06-01T23:15:50.685Z,94588.30
2019-06-01T23:30:50.719Z,94583.95
2019-06-01T23:45:50.700Z,94592.91
